createdAt,value
2023-08-30T00:02:32.070Z,43.76
2023-08-30T00:07:34.241Z,44.42
2023-08-30T00:12:36.164Z,43.84
2023-08-30T00:17:38.584Z,44.45
2023-08-30T00:22:40.975Z,44.10
2023-08-30T00:27:43.234Z,44.18
2023-08-30T00:32:46.832Z,44.09
2023-08-30T00:37:49.312Z,44.32
2023-08-30T00:42:51.687Z,44.47
2023-08-30T00:47:54.903Z,44.38
2023-08-30T00:52:57.035Z,44.15
2023-08-30T00:57:59.133Z,44.71
2023-08-30T01:03:01.715Z,44.38
2023-08-30T01:08:04.249Z,44.30
2023-08-30T01:13:10.508Z,44.60
2023-08-30T01:18:13.898Z,44.72
2023-08-30T01:23:41.620Z,44.46
2023-08-30T01:28:45.310Z,44.47
2023-08-30T01:33:47.604Z,44.27
2023-08-30T01:38:50.645Z,44.58
2023-08-30T01:43:54.084Z,44.97
2023-08-30T01:48:57.320Z,44.35
2023-08-30T01:53:59.286Z,44.15
2023-08-30T01:59:01.525Z,44.13
2023-08-30T02:04:03.761Z,44.69
2023-08-30T02:09:23.841Z,44.53
2023-08-30T02:14:27.875Z,44.55
2023-08-30T02:19:30.076Z,44.77
2023-08-30T02:24:32.217Z,44.43
2023-08-30T02:29:34.489Z,44.43
2023-08-30T02:34:37.102Z,44.85
2023-08-30T02:39:39.226Z,44.83
2023-08-30T02:44:42.287Z,44.59
2023-08-30T02:49:44.566Z,44.55
2023-08-30T02:54:46.785Z,44.46
2023-08-30T02:59:48.869Z,44.48
2023-08-30T03:04:51.219Z,45.15
2023-08-30T03:09:54.357Z,44.72
2023-08-30T03:14:56.756Z,44.80
2023-08-30T03:19:59.550Z,44.49
2023-08-30T03:25:04.484Z,44.66
2023-08-30T03:30:07.745Z,44.64
2023-08-30T03:35:11.023Z,44.92
2023-08-30T03:40:13.414Z,44.76
2023-08-30T03:45:15.591Z,44.56
2023-08-30T03:50:17.957Z,44.69
2023-08-30T03:55:20.314Z,44.82
2023-08-30T04:00:22.453Z,44.71
2023-08-30T04:05:28.183Z,44.75
2023-08-30T04:10:39.454Z,44.93
2023-08-30T04:15:41.683Z,44.81
2023-08-30T04:20:46.592Z,45.31
2023-08-30T04:25:48.736Z,45.00
2023-08-30T04:30:54.991Z,45.06
2023-08-30T04:35:57.178Z,44.59
2023-08-30T04:41:00.907Z,44.68
2023-08-30T04:46:08.261Z,44.92
2023-08-30T04:51:10.791Z,44.74
2023-08-30T04:56:14.263Z,45.03
2023-08-30T05:01:17.160Z,44.57
2023-08-30T05:06:23.499Z,44.85
2023-08-30T05:11:25.710Z,44.83
2023-08-30T05:16:28.064Z,44.82
2023-08-30T05:21:30.800Z,45.24
2023-08-30T05:26:32.876Z,44.92
2023-08-30T05:31:35.326Z,45.11
2023-08-30T05:36:57.928Z,45.31
2023-08-30T05:42:11.518Z,44.70
2023-08-30T05:47:16.218Z,44.89
2023-08-30T05:52:19.395Z,45.32
2023-08-30T05:57:23.517Z,44.72
2023-08-30T06:02:25.828Z,46.29
2023-08-30T06:07:27.997Z,47.97
2023-08-30T06:12:30.083Z,46.06
2023-08-30T06:17:32.516Z,45.91
2023-08-30T06:22:35.734Z,45.36
2023-08-30T06:27:44.648Z,45.11
2023-08-30T06:32:46.770Z,45.21
2023-08-30T06:37:48.773Z,45.25
2023-08-30T06:42:50.844Z,44.69
2023-08-30T06:47:56.025Z,45.12
2023-08-30T06:52:58.486Z,45.32
2023-08-30T06:58:00.935Z,45.26
2023-08-30T07:03:03.214Z,45.18
2023-08-30T07:08:05.517Z,45.28
2023-08-30T07:13:11.697Z,44.78
2023-08-30T07:18:14.179Z,45.53
2023-08-30T07:23:16.743Z,44.99
2023-08-30T07:28:19.069Z,45.52
2023-08-30T07:33:21.369Z,45.01
2023-08-30T07:38:23.862Z,45.25
2023-08-30T07:43:26.487Z,45.15
2023-08-30T07:48:28.566Z,45.39
2023-08-30T07:53:31.014Z,45.34
2023-08-30T07:58:33.177Z,45.41
2023-08-30T08:03:35.360Z,45.22
2023-08-30T08:08:37.596Z,45.18
2023-08-30T08:13:40.135Z,46.45
2023-08-30T08:18:42.419Z,48.06
2023-08-30T08:23:44.726Z,47.54
2023-08-30T08:28:47.051Z,46.66
2023-08-30T08:33:54.183Z,46.07
2023-08-30T08:38:56.323Z,45.59
2023-08-30T08:43:59.370Z,45.52
2023-08-30T08:49:06.169Z,45.19
2023-08-30T08:54:10.365Z,44.57
2023-08-30T08:59:12.692Z,44.19
2023-08-30T09:04:14.771Z,44.37
2023-08-30T09:09:16.909Z,44.50
2023-08-30T09:14:20.091Z,44.69
2023-08-30T09:19:23.208Z,44.31
2023-08-30T09:24:26.083Z,43.82
2023-08-30T09:29:28.838Z,44.57
2023-08-30T09:34:31.030Z,43.86
2023-08-30T09:39:34.506Z,42.74
2023-08-30T09:44:36.934Z,42.96
2023-08-30T09:49:49.214Z,44.58
2023-08-30T09:54:52.503Z,42.83
2023-08-30T09:59:55.816Z,43.44
2023-08-30T10:04:58.290Z,42.89
2023-08-30T10:10:09.759Z,42.40
2023-08-30T10:15:12.581Z,42.79
2023-08-30T10:20:15.231Z,42.14
2023-08-30T10:25:21.789Z,42.06
2023-08-30T10:30:24.784Z,41.38
2023-08-30T10:35:27.091Z,40.44
2023-08-30T10:40:29.394Z,41.29
2023-08-30T10:45:31.879Z,43.22
2023-08-30T10:50:35.188Z,42.56
2023-08-30T10:55:37.734Z,42.24
2023-08-30T11:00:42.206Z,40.68
2023-08-30T11:05:44.319Z,41.20
2023-08-30T11:10:47.305Z,41.91
2023-08-30T11:15:51.820Z,41.28
2023-08-30T11:21:03.849Z,40.66
2023-08-30T11:26:06.269Z,40.88
2023-08-30T11:31:08.842Z,40.72
2023-08-30T11:36:11.011Z,40.82
2023-08-30T11:41:13.608Z,40.48
2023-08-30T11:46:16.243Z,40.57
2023-08-30T11:51:19.772Z,40.39
2023-08-30T11:56:22.021Z,40.32
2023-08-30T12:01:24.343Z,39.87
2023-08-30T12:06:26.759Z,39.90
2023-08-30T12:11:33.050Z,40.15
2023-08-30T12:16:35.318Z,40.47
2023-08-30T12:21:44.213Z,40.83
2023-08-30T12:26:46.334Z,41.15
2023-08-30T12:31:48.597Z,41.00
2023-08-30T12:36:50.624Z,40.22
2023-08-30T12:41:52.868Z,40.05
2023-08-30T12:46:55.024Z,39.53
2023-08-30T12:51:57.009Z,39.27
2023-08-30T12:56:59.246Z,39.72
2023-08-30T13:02:01.694Z,40.49
2023-08-30T13:07:04.022Z,39.90
2023-08-30T13:12:06.926Z,40.33
2023-08-30T13:17:10.644Z,40.72
2023-08-30T13:22:12.799Z,40.56
2023-08-30T13:27:14.874Z,40.64
2023-08-30T13:32:17.475Z,41.04
2023-08-30T13:37:19.672Z,41.41
2023-08-30T13:42:22.790Z,42.02
2023-08-30T13:47:25.083Z,42.77
2023-08-30T13:52:27.515Z,43.36
2023-08-30T13:57:29.702Z,43.05
2023-08-30T14:02:31.621Z,43.66
2023-08-30T14:07:33.594Z,43.48
2023-08-30T14:12:35.891Z,43.19
2023-08-30T14:17:37.875Z,42.60
2023-08-30T14:22:40.308Z,42.31
2023-08-30T14:27:42.434Z,42.38
2023-08-30T14:32:44.552Z,42.09
2023-08-30T14:37:46.667Z,42.11
2023-08-30T14:42:48.935Z,42.78
2023-08-30T14:47:51.049Z,42.38
2023-08-30T14:52:56.248Z,43.52
2023-08-30T14:57:58.403Z,43.35
2023-08-30T15:03:00.569Z,42.82
2023-08-30T15:08:03.644Z,42.42
2023-08-30T15:13:06.286Z,42.50
2023-08-30T15:18:09.877Z,42.77
2023-08-30T15:23:18.300Z,41.80
2023-08-30T15:28:20.529Z,41.34
2023-08-30T15:33:22.741Z,41.21
2023-08-30T15:38:24.911Z,42.54
2023-08-30T15:43:27.323Z,41.38
2023-08-30T15:48:29.317Z,41.38
2023-08-30T15:53:31.490Z,41.13
2023-08-30T15:58:33.764Z,41.47
2023-08-30T16:03:38.333Z,41.76
2023-08-30T16:08:40.706Z,41.58
2023-08-30T16:13:42.882Z,41.41
2023-08-30T16:18:45.180Z,42.63
2023-08-30T16:23:47.602Z,42.49
2023-08-30T16:28:49.651Z,42.82
2023-08-30T16:33:51.806Z,42.99
2023-08-30T16:38:53.899Z,42.35
2023-08-30T16:43:56.134Z,42.41
2023-08-30T16:48:58.737Z,42.97
2023-08-30T16:54:01.011Z,42.78
2023-08-30T16:59:03.352Z,43.04
2023-08-30T17:04:05.715Z,42.99
2023-08-30T17:09:07.866Z,43.15
2023-08-30T17:14:12.586Z,43.55
2023-08-30T17:19:14.890Z,43.70
2023-08-30T17:24:17.146Z,44.08
2023-08-30T17:29:19.710Z,44.17
2023-08-30T17:34:21.848Z,43.54
2023-08-30T17:39:25.487Z,43.85
2023-08-30T17:44:27.739Z,44.26
2023-08-30T17:49:29.857Z,45.68
2023-08-30T17:54:33.646Z,46.51
2023-08-30T17:59:36.555Z,46.56
2023-08-30T18:04:40.199Z,46.38
2023-08-30T18:09:42.407Z,46.31
2023-08-30T18:14:48.337Z,46.26
2023-08-30T18:19:50.656Z,46.10
2023-08-30T18:24:52.734Z,45.97
2023-08-30T18:29:54.961Z,45.84
2023-08-30T18:34:57.097Z,45.49
2023-08-30T18:40:00.205Z,45.09
2023-08-30T18:45:02.732Z,45.01
2023-08-30T18:50:05.254Z,44.94
2023-08-30T18:55:08.108Z,45.26
2023-08-30T19:00:11.964Z,44.65
2023-08-30T19:05:14.053Z,44.55
2023-08-30T19:10:16.108Z,44.52
2023-08-30T19:15:18.243Z,44.75
2023-08-30T19:20:20.295Z,44.43
2023-08-30T19:25:22.476Z,44.41
2023-08-30T19:30:27.681Z,44.56
2023-08-30T19:35:30.016Z,44.25
2023-08-30T19:40:32.126Z,44.14
2023-08-30T19:45:34.629Z,44.65
2023-08-30T19:50:37.315Z,44.69
2023-08-30T19:55:39.385Z,44.08
2023-08-30T20:00:41.460Z,44.39
2023-08-30T20:05:51.634Z,44.24
2023-08-30T20:10:53.653Z,43.73
2023-08-30T20:16:03.828Z,43.98
2023-08-30T20:21:12.724Z,43.52
2023-08-30T20:26:15.167Z,43.69
2023-08-30T20:31:17.529Z,44.06
2023-08-30T20:36:27.209Z,43.98
2023-08-30T20:41:33.520Z,44.41
2023-08-30T20:46:36.968Z,44.59
2023-08-30T20:51:39.157Z,44.43
2023-08-30T20:56:41.550Z,44.19
2023-08-30T21:01:43.806Z,44.43
2023-08-30T21:06:47.219Z,44.30
2023-08-30T21:11:49.642Z,45.05
2023-08-30T21:16:52.004Z,44.55
2023-08-30T21:21:54.541Z,44.95
2023-08-30T21:26:56.720Z,44.99
2023-08-30T21:31:58.924Z,45.15
2023-08-30T21:37:01.051Z,45.03
2023-08-30T21:42:03.645Z,44.94
2023-08-30T21:47:05.911Z,44.78
2023-08-30T21:52:08.093Z,44.79
2023-08-30T21:57:10.536Z,44.94
2023-08-30T22:02:12.709Z,44.89
2023-08-30T22:13:30.224Z,44.49
2023-08-30T22:18:32.724Z,44.71
2023-08-30T22:23:34.816Z,45.11
2023-08-30T22:28:36.902Z,45.06
2023-08-30T22:33:39.033Z,45.11
2023-08-30T22:38:41.107Z,44.81
2023-08-30T22:43:43.259Z,44.80
2023-08-30T22:48:45.772Z,44.63
2023-08-30T22:53:47.946Z,44.81
2023-08-30T22:58:51.524Z,44.95
2023-08-30T23:03:53.763Z,45.13
2023-08-30T23:08:56.009Z,44.55
2023-08-30T23:13:58.005Z,44.96
2023-08-30T23:19:00.961Z,44.75
2023-08-30T23:24:04.149Z,44.65
2023-08-30T23:29:09.006Z,44.52
2023-08-30T23:34:11.239Z,44.33
2023-08-30T23:39:16.527Z,44.89
2023-08-30T23:44:18.664Z,44.42
2023-08-30T23:49:20.990Z,44.35
2023-08-30T23:54:23.136Z,44.39
2023-08-30T23:59:25.145Z,44.46
